sensor_id;sensor_type;location;lat;lon;timestamp;P1;durP1;ratioP1;P2;durP2;ratioP2
24161;SDS011;12318;51.262;7.066;2023-05-10T00:01:18;52.45;;;17.73;;
24161;SDS011;12318;51.262;7.066;2023-05-10T00:03:43;23.30;;;14.07;;
24161;SDS011;12318;51.262;7.066;2023-05-10T00:06:10;30.27;;;15.32;;
24161;SDS011;12318;51.262;7.066;2023-05-10T00:08:35;33.35;;;15.82;;
24161;SDS011;12318;51.262;7.066;2023-05-10T00:11:01;30.08;;;14.95;;
24161;SDS011;12318;51.262;7.066;2023-05-10T00:13:29;26.42;;;13.35;;
24161;SDS011;12318;51.262;7.066;2023-05-10T00:15:59;25.42;;;14.10;;
24161;SDS011;12318;51.262;7.066;2023-05-10T00:18:25;33.05;;;16.77;;
24161;SDS011;12318;51.262;7.066;2023-05-10T00:20:50;24.67;;;15.23;;
24161;SDS011;12318;51.262;7.066;2023-05-10T00:23:16;35.67;;;16.50;;
24161;SDS011;12318;51.262;7.066;2023-05-10T00:25:45;45.22;;;18.00;;
24161;SDS011;12318;51.262;7.066;2023-05-10T00:28:10;24.42;;;13.43;;
24161;SDS011;12318;51.262;7.066;2023-05-10T00:30:39;28.98;;;15.85;;
24161;SDS011;12318;51.262;7.066;2023-05-10T00:33:05;31.60;;;16.35;;
24161;SDS011;12318;51.262;7.066;2023-05-10T00:35:31;38.53;;;16.35;;
24161;SDS011;12318;51.262;7.066;2023-05-10T00:38:00;46.97;;;16.80;;
24161;SDS011;12318;51.262;7.066;2023-05-10T00:40:26;34.33;;;15.00;;
24161;SDS011;12318;51.262;7.066;2023-05-10T00:42:55;24.40;;;14.07;;
24161;SDS011;12318;51.262;7.066;2023-05-10T00:45:26;37.35;;;17.10;;
24161;SDS011;12318;51.262;7.066;2023-05-10T00:47:54;29.20;;;15.35;;
24161;SDS011;12318;51.262;7.066;2023-05-10T00:50:24;28.25;;;12.82;;
24161;SDS011;12318;51.262;7.066;2023-05-10T00:52:50;29.50;;;14.32;;
24161;SDS011;12318;51.262;7.066;2023-05-10T00:55:15;39.97;;;15.18;;
24161;SDS011;12318;51.262;7.066;2023-05-10T00:57:42;31.13;;;13.52;;
24161;SDS011;12318;51.262;7.066;2023-05-10T01:00:08;49.17;;;17.60;;
24161;SDS011;12318;51.262;7.066;2023-05-10T01:02:34;36.65;;;15.52;;
24161;SDS011;12318;51.262;7.066;2023-05-10T01:05:01;30.35;;;15.13;;
24161;SDS011;12318;51.262;7.066;2023-05-10T01:07:28;22.27;;;12.13;;
24161;SDS011;12318;51.262;7.066;2023-05-10T01:09:55;134.23;;;19.45;;
24161;SDS011;12318;51.262;7.066;2023-05-10T01:12:21;75.75;;;18.27;;
24161;SDS011;12318;51.262;7.066;2023-05-10T01:14:50;31.98;;;14.13;;
24161;SDS011;12318;51.262;7.066;2023-05-10T01:17:16;47.65;;;17.58;;
24161;SDS011;12318;51.262;7.066;2023-05-10T01:19:49;56.28;;;19.42;;
24161;SDS011;12318;51.262;7.066;2023-05-10T01:33:21;39.47;;;18.23;;
24161;SDS011;12318;51.262;7.066;2023-05-10T01:41:23;99.78;;;33.28;;
24161;SDS011;12318;51.262;7.066;2023-05-10T01:46:41;146.93;;;38.45;;
24161;SDS011;12318;51.262;7.066;2023-05-10T01:49:08;58.42;;;29.65;;
24161;SDS011;12318;51.262;7.066;2023-05-10T01:51:42;64.50;;;26.90;;
24161;SDS011;12318;51.262;7.066;2023-05-10T01:54:12;89.97;;;31.30;;
24161;SDS011;12318;51.262;7.066;2023-05-10T01:56:39;86.70;;;29.30;;
24161;SDS011;12318;51.262;7.066;2023-05-10T01:59:09;35.83;;;20.70;;
24161;SDS011;12318;51.262;7.066;2023-05-10T02:01:39;62.65;;;25.02;;
24161;SDS011;12318;51.262;7.066;2023-05-10T02:04:06;51.08;;;23.58;;
24161;SDS011;12318;51.262;7.066;2023-05-10T02:06:36;33.47;;;19.58;;
24161;SDS011;12318;51.262;7.066;2023-05-10T02:09:10;69.05;;;29.55;;
24161;SDS011;12318;51.262;7.066;2023-05-10T02:11:41;63.77;;;27.83;;
24161;SDS011;12318;51.262;7.066;2023-05-10T02:14:09;36.60;;;20.83;;
24161;SDS011;12318;51.262;7.066;2023-05-10T02:16:36;50.05;;;25.90;;
24161;SDS011;12318;51.262;7.066;2023-05-10T02:19:06;71.82;;;31.33;;
24161;SDS011;12318;51.262;7.066;2023-05-10T02:21:37;117.18;;;35.40;;
24161;SDS011;12318;51.262;7.066;2023-05-10T02:24:05;86.80;;;32.67;;
24161;SDS011;12318;51.262;7.066;2023-05-10T02:26:32;69.50;;;30.35;;
24161;SDS011;12318;51.262;7.066;2023-05-10T02:29:02;74.40;;;27.70;;
24161;SDS011;12318;51.262;7.066;2023-05-10T02:31:29;46.50;;;21.10;;
24161;SDS011;12318;51.262;7.066;2023-05-10T02:33:57;35.65;;;19.10;;
24161;SDS011;12318;51.262;7.066;2023-05-10T02:36:24;45.35;;;21.48;;
24161;SDS011;12318;51.262;7.066;2023-05-10T02:38:52;32.08;;;16.80;;
24161;SDS011;12318;51.262;7.066;2023-05-10T02:41:19;48.25;;;22.02;;
24161;SDS011;12318;51.262;7.066;2023-05-10T02:43:50;35.33;;;19.52;;
24161;SDS011;12318;51.262;7.066;2023-05-10T02:46:18;53.80;;;25.13;;
24161;SDS011;12318;51.262;7.066;2023-05-10T02:48:44;52.97;;;24.13;;
24161;SDS011;12318;51.262;7.066;2023-05-10T02:51:10;77.13;;;28.42;;
24161;SDS011;12318;51.262;7.066;2023-05-10T02:53:40;39.20;;;21.90;;
24161;SDS011;12318;51.262;7.066;2023-05-10T02:56:11;72.85;;;26.48;;
24161;SDS011;12318;51.262;7.066;2023-05-10T02:58:48;21.80;;;15.55;;
24161;SDS011;12318;51.262;7.066;2023-05-10T03:01:14;52.83;;;24.75;;
24161;SDS011;12318;51.262;7.066;2023-05-10T03:03:40;49.88;;;24.42;;
24161;SDS011;12318;51.262;7.066;2023-05-10T03:06:07;26.70;;;16.65;;
24161;SDS011;12318;51.262;7.066;2023-05-10T03:08:32;50.00;;;24.33;;
24161;SDS011;12318;51.262;7.066;2023-05-10T03:13:53;37.60;;;21.10;;
24161;SDS011;12318;51.262;7.066;2023-05-10T03:16:56;28.85;;;18.67;;
24161;SDS011;12318;51.262;7.066;2023-05-10T03:19:40;42.25;;;24.58;;
24161;SDS011;12318;51.262;7.066;2023-05-10T03:22:13;36.85;;;22.50;;
24161;SDS011;12318;51.262;7.066;2023-05-10T03:24:48;50.53;;;25.48;;
24161;SDS011;12318;51.262;7.066;2023-05-10T03:27:15;60.08;;;26.92;;
24161;SDS011;12318;51.262;7.066;2023-05-10T03:29:42;49.22;;;24.90;;
24161;SDS011;12318;51.262;7.066;2023-05-10T03:32:11;39.17;;;20.70;;
24161;SDS011;12318;51.262;7.066;2023-05-10T03:34:41;33.55;;;20.02;;
24161;SDS011;12318;51.262;7.066;2023-05-10T03:37:09;45.00;;;22.75;;
24161;SDS011;12318;51.262;7.066;2023-05-10T03:39:35;23.23;;;14.40;;
24161;SDS011;12318;51.262;7.066;2023-05-10T03:42:01;43.83;;;21.17;;
24161;SDS011;12318;51.262;7.066;2023-05-10T03:44:26;38.05;;;19.50;;
24161;SDS011;12318;51.262;7.066;2023-05-10T03:46:52;28.13;;;16.30;;
24161;SDS011;12318;51.262;7.066;2023-05-10T03:49:18;36.63;;;19.83;;
24161;SDS011;12318;51.262;7.066;2023-05-10T03:51:44;33.28;;;18.70;;
24161;SDS011;12318;51.262;7.066;2023-05-10T03:54:10;31.25;;;16.80;;
24161;SDS011;12318;51.262;7.066;2023-05-10T03:56:36;27.73;;;16.38;;
24161;SDS011;12318;51.262;7.066;2023-05-10T03:59:01;23.20;;;14.68;;
24161;SDS011;12318;51.262;7.066;2023-05-10T04:01:32;28.77;;;17.27;;
24161;SDS011;12318;51.262;7.066;2023-05-10T04:03:58;43.38;;;19.88;;
24161;SDS011;12318;51.262;7.066;2023-05-10T04:06:24;43.00;;;20.50;;
24161;SDS011;12318;51.262;7.066;2023-05-10T04:08:50;43.67;;;20.67;;
24161;SDS011;12318;51.262;7.066;2023-05-10T04:11:16;29.55;;;16.83;;
24161;SDS011;12318;51.262;7.066;2023-05-10T04:13:41;56.75;;;24.73;;
24161;SDS011;12318;51.262;7.066;2023-05-10T04:16:08;37.25;;;19.35;;
24161;SDS011;12318;51.262;7.066;2023-05-10T04:18:34;33.88;;;18.42;;
24161;SDS011;12318;51.262;7.066;2023-05-10T04:20:59;41.60;;;22.13;;
24161;SDS011;12318;51.262;7.066;2023-05-10T04:23:26;39.33;;;20.70;;
24161;SDS011;12318;51.262;7.066;2023-05-10T04:25:52;44.40;;;22.08;;
24161;SDS011;12318;51.262;7.066;2023-05-10T04:28:24;48.97;;;23.48;;
24161;SDS011;12318;51.262;7.066;2023-05-10T04:30:50;39.78;;;21.60;;
24161;SDS011;12318;51.262;7.066;2023-05-10T04:33:16;49.33;;;24.25;;
24161;SDS011;12318;51.262;7.066;2023-05-10T04:35:42;32.17;;;19.27;;
24161;SDS011;12318;51.262;7.066;2023-05-10T04:38:07;52.35;;;24.58;;
24161;SDS011;12318;51.262;7.066;2023-05-10T04:40:33;31.02;;;18.90;;
24161;SDS011;12318;51.262;7.066;2023-05-10T04:42:59;64.38;;;27.92;;
24161;SDS011;12318;51.262;7.066;2023-05-10T04:45:25;54.33;;;28.08;;
24161;SDS011;12318;51.262;7.066;2023-05-10T04:47:51;109.15;;;34.10;;
24161;SDS011;12318;51.262;7.066;2023-05-10T04:50:16;63.80;;;30.92;;
24161;SDS011;12318;51.262;7.066;2023-05-10T04:52:42;58.58;;;28.55;;
24161;SDS011;12318;51.262;7.066;2023-05-10T04:55:08;72.38;;;33.35;;
24161;SDS011;12318;51.262;7.066;2023-05-10T04:57:35;69.57;;;34.45;;
24161;SDS011;12318;51.262;7.066;2023-05-10T05:00:00;76.97;;;37.35;;
24161;SDS011;12318;51.262;7.066;2023-05-10T05:02:26;43.75;;;26.67;;
24161;SDS011;12318;51.262;7.066;2023-05-10T05:04:52;96.75;;;35.30;;
24161;SDS011;12318;51.262;7.066;2023-05-10T05:07:18;57.70;;;31.15;;
24161;SDS011;12318;51.262;7.066;2023-05-10T05:09:44;65.72;;;30.17;;
24161;SDS011;12318;51.262;7.066;2023-05-10T05:12:09;119.57;;;36.72;;
24161;SDS011;12318;51.262;7.066;2023-05-10T05:14:39;60.22;;;27.98;;
24161;SDS011;12318;51.262;7.066;2023-05-10T05:17:05;75.65;;;33.95;;
24161;SDS011;12318;51.262;7.066;2023-05-10T05:19:31;75.45;;;30.30;;
24161;SDS011;12318;51.262;7.066;2023-05-10T05:21:56;89.18;;;32.00;;
24161;SDS011;12318;51.262;7.066;2023-05-10T05:24:22;72.57;;;33.85;;
24161;SDS011;12318;51.262;7.066;2023-05-10T05:26:53;106.03;;;33.65;;
24161;SDS011;12318;51.262;7.066;2023-05-10T05:29:19;79.28;;;34.10;;
24161;SDS011;12318;51.262;7.066;2023-05-10T05:31:45;96.93;;;36.90;;
24161;SDS011;12318;51.262;7.066;2023-05-10T05:34:11;80.43;;;36.00;;
24161;SDS011;12318;51.262;7.066;2023-05-10T05:36:37;91.68;;;38.55;;
24161;SDS011;12318;51.262;7.066;2023-05-10T05:39:05;67.20;;;31.15;;
24161;SDS011;12318;51.262;7.066;2023-05-10T05:41:31;67.57;;;31.77;;
24161;SDS011;12318;51.262;7.066;2023-05-10T05:43:57;84.30;;;35.13;;
24161;SDS011;12318;51.262;7.066;2023-05-10T05:46:23;79.43;;;34.72;;
24161;SDS011;12318;51.262;7.066;2023-05-10T05:48:48;76.43;;;34.63;;
24161;SDS011;12318;51.262;7.066;2023-05-10T05:51:14;82.82;;;34.72;;
24161;SDS011;12318;51.262;7.066;2023-05-10T05:53:40;82.00;;;34.47;;
24161;SDS011;12318;51.262;7.066;2023-05-10T05:56:07;76.80;;;33.45;;
24161;SDS011;12318;51.262;7.066;2023-05-10T05:58:33;76.88;;;33.70;;
24161;SDS011;12318;51.262;7.066;2023-05-10T06:00:58;75.80;;;33.83;;
24161;SDS011;12318;51.262;7.066;2023-05-10T06:03:24;60.60;;;30.02;;
24161;SDS011;12318;51.262;7.066;2023-05-10T06:05:50;92.15;;;36.15;;
24161;SDS011;12318;51.262;7.066;2023-05-10T06:08:19;63.28;;;31.70;;
24161;SDS011;12318;51.262;7.066;2023-05-10T06:17:25;74.72;;;33.88;;
24161;SDS011;12318;51.262;7.066;2023-05-10T06:31:55;55.97;;;28.33;;
24161;SDS011;12318;51.262;7.066;2023-05-10T06:34:26;58.63;;;27.95;;
24161;SDS011;12318;51.262;7.066;2023-05-10T06:37:11;42.60;;;23.75;;
24161;SDS011;12318;51.262;7.066;2023-05-10T06:39:52;44.97;;;24.45;;
24161;SDS011;12318;51.262;7.066;2023-05-10T06:42:18;42.47;;;23.88;;
24161;SDS011;12318;51.262;7.066;2023-05-10T06:44:44;45.90;;;25.08;;
24161;SDS011;12318;51.262;7.066;2023-05-10T06:47:13;51.72;;;25.20;;
24161;SDS011;12318;51.262;7.066;2023-05-10T06:49:42;41.78;;;23.17;;
24161;SDS011;12318;51.262;7.066;2023-05-10T06:52:24;42.40;;;24.17;;
24161;SDS011;12318;51.262;7.066;2023-05-10T06:54:50;40.20;;;23.10;;
24161;SDS011;12318;51.262;7.066;2023-05-10T06:57:18;42.92;;;24.20;;
24161;SDS011;12318;51.262;7.066;2023-05-10T06:59:45;71.45;;;27.80;;
24161;SDS011;12318;51.262;7.066;2023-05-10T07:02:14;40.88;;;23.05;;
24161;SDS011;12318;51.262;7.066;2023-05-10T07:04:40;64.38;;;28.38;;
24161;SDS011;12318;51.262;7.066;2023-05-10T07:07:08;46.38;;;26.23;;
24161;SDS011;12318;51.262;7.066;2023-05-10T07:09:34;52.10;;;25.50;;
24161;SDS011;12318;51.262;7.066;2023-05-10T07:12:02;46.38;;;25.77;;
24161;SDS011;12318;51.262;7.066;2023-05-10T07:14:28;56.15;;;26.20;;
24161;SDS011;12318;51.262;7.066;2023-05-10T07:16:54;46.58;;;23.50;;
24161;SDS011;12318;51.262;7.066;2023-05-10T07:19:20;50.97;;;26.48;;
24161;SDS011;12318;51.262;7.066;2023-05-10T07:21:49;51.78;;;26.40;;
24161;SDS011;12318;51.262;7.066;2023-05-10T07:24:15;50.53;;;26.40;;
24161;SDS011;12318;51.262;7.066;2023-05-10T07:26:41;60.35;;;27.77;;
24161;SDS011;12318;51.262;7.066;2023-05-10T07:29:07;44.15;;;23.25;;
24161;SDS011;12318;51.262;7.066;2023-05-10T07:31:32;47.67;;;23.48;;
24161;SDS011;12318;51.262;7.066;2023-05-10T07:33:58;43.22;;;23.40;;
24161;SDS011;12318;51.262;7.066;2023-05-10T07:36:24;52.20;;;23.23;;
24161;SDS011;12318;51.262;7.066;2023-05-10T07:38:50;44.45;;;21.90;;
24161;SDS011;12318;51.262;7.066;2023-05-10T07:41:16;38.63;;;20.38;;
24161;SDS011;12318;51.262;7.066;2023-05-10T07:43:41;37.75;;;21.05;;
24161;SDS011;12318;51.262;7.066;2023-05-10T07:46:07;65.70;;;23.95;;
24161;SDS011;12318;51.262;7.066;2023-05-10T07:48:38;39.88;;;20.45;;
24161;SDS011;12318;51.262;7.066;2023-05-10T07:51:09;34.90;;;18.83;;
24161;SDS011;12318;51.262;7.066;2023-05-10T07:53:43;31.08;;;17.40;;
24161;SDS011;12318;51.262;7.066;2023-05-10T07:56:26;29.05;;;17.25;;
24161;SDS011;12318;51.262;7.066;2023-05-10T07:59:02;36.25;;;18.95;;
24161;SDS011;12318;51.262;7.066;2023-05-10T08:01:36;39.97;;;21.08;;
24161;SDS011;12318;51.262;7.066;2023-05-10T08:04:02;41.22;;;22.13;;
24161;SDS011;12318;51.262;7.066;2023-05-10T08:06:28;39.85;;;20.50;;
24161;SDS011;12318;51.262;7.066;2023-05-10T08:09:03;51.38;;;22.15;;
24161;SDS011;12318;51.262;7.066;2023-05-10T08:11:33;38.33;;;21.48;;
24161;SDS011;12318;51.262;7.066;2023-05-10T08:13:58;47.55;;;22.85;;
24161;SDS011;12318;51.262;7.066;2023-05-10T08:16:27;44.25;;;22.65;;
24161;SDS011;12318;51.262;7.066;2023-05-10T08:18:55;41.30;;;23.35;;
24161;SDS011;12318;51.262;7.066;2023-05-10T08:21:29;40.47;;;22.77;;
24161;SDS011;12318;51.262;7.066;2023-05-10T08:23:56;42.03;;;22.02;;
24161;SDS011;12318;51.262;7.066;2023-05-10T08:26:22;41.80;;;20.98;;
24161;SDS011;12318;51.262;7.066;2023-05-10T08:28:48;40.40;;;20.60;;
24161;SDS011;12318;51.262;7.066;2023-05-10T08:31:14;39.58;;;20.05;;
24161;SDS011;12318;51.262;7.066;2023-05-10T08:33:40;34.20;;;19.27;;
24161;SDS011;12318;51.262;7.066;2023-05-10T08:36:06;35.20;;;18.95;;
24161;SDS011;12318;51.262;7.066;2023-05-10T08:38:32;36.05;;;18.45;;
24161;SDS011;12318;51.262;7.066;2023-05-10T08:40:58;34.08;;;16.17;;
24161;SDS011;12318;51.262;7.066;2023-05-10T08:43:30;31.27;;;17.15;;
24161;SDS011;12318;51.262;7.066;2023-05-10T08:46:03;29.23;;;15.45;;
24161;SDS011;12318;51.262;7.066;2023-05-10T08:48:31;29.85;;;15.95;;
24161;SDS011;12318;51.262;7.066;2023-05-10T08:50:59;31.80;;;17.10;;
24161;SDS011;12318;51.262;7.066;2023-05-10T08:55:58;30.95;;;17.30;;
24161;SDS011;12318;51.262;7.066;2023-05-10T08:58:24;35.13;;;18.48;;
24161;SDS011;12318;51.262;7.066;2023-05-10T09:00:55;43.17;;;20.35;;
24161;SDS011;12318;51.262;7.066;2023-05-10T09:03:29;40.28;;;21.73;;
24161;SDS011;12318;51.262;7.066;2023-05-10T09:05:59;37.78;;;21.05;;
24161;SDS011;12318;51.262;7.066;2023-05-10T09:08:27;42.10;;;21.23;;
24161;SDS011;12318;51.262;7.066;2023-05-10T09:10:56;40.13;;;21.48;;
24161;SDS011;12318;51.262;7.066;2023-05-10T09:13:22;40.88;;;21.23;;
24161;SDS011;12318;51.262;7.066;2023-05-10T09:15:50;40.28;;;21.95;;
24161;SDS011;12318;51.262;7.066;2023-05-10T09:18:19;45.78;;;22.92;;
24161;SDS011;12318;51.262;7.066;2023-05-10T09:20:50;42.35;;;21.42;;
24161;SDS011;12318;51.262;7.066;2023-05-10T09:23:16;38.15;;;21.45;;
24161;SDS011;12318;51.262;7.066;2023-05-10T09:25:42;45.03;;;22.95;;
24161;SDS011;12318;51.262;7.066;2023-05-10T09:28:11;44.78;;;23.77;;
24161;SDS011;12318;51.262;7.066;2023-05-10T09:30:37;40.20;;;23.55;;
24161;SDS011;12318;51.262;7.066;2023-05-10T09:33:07;40.10;;;22.75;;
24161;SDS011;12318;51.262;7.066;2023-05-10T09:35:33;39.55;;;24.13;;
24161;SDS011;12318;51.262;7.066;2023-05-10T09:38:00;41.15;;;23.17;;
24161;SDS011;12318;51.262;7.066;2023-05-10T09:40:30;36.03;;;22.48;;
24161;SDS011;12318;51.262;7.066;2023-05-10T09:45:47;39.80;;;21.45;;
24161;SDS011;12318;51.262;7.066;2023-05-10T09:48:16;41.67;;;22.55;;
24161;SDS011;12318;51.262;7.066;2023-05-10T09:50:42;48.78;;;24.77;;
24161;SDS011;12318;51.262;7.066;2023-05-10T09:53:17;60.78;;;26.90;;
24161;SDS011;12318;51.262;7.066;2023-05-10T09:55:52;46.60;;;25.33;;
24161;SDS011;12318;51.262;7.066;2023-05-10T09:58:18;44.90;;;24.35;;
24161;SDS011;12318;51.262;7.066;2023-05-10T10:00:45;48.65;;;25.10;;
24161;SDS011;12318;51.262;7.066;2023-05-10T10:03:19;44.38;;;24.08;;
24161;SDS011;12318;51.262;7.066;2023-05-10T10:05:46;47.35;;;24.88;;
24161;SDS011;12318;51.262;7.066;2023-05-10T10:08:13;44.97;;;22.98;;
24161;SDS011;12318;51.262;7.066;2023-05-10T10:10:40;43.72;;;23.33;;
24161;SDS011;12318;51.262;7.066;2023-05-10T10:13:06;42.58;;;22.98;;
24161;SDS011;12318;51.262;7.066;2023-05-10T10:15:33;46.10;;;22.10;;
24161;SDS011;12318;51.262;7.066;2023-05-10T10:17:59;47.80;;;20.48;;
24161;SDS011;12318;51.262;7.066;2023-05-10T10:20:26;41.75;;;20.55;;
24161;SDS011;12318;51.262;7.066;2023-05-10T10:22:53;37.17;;;19.42;;
24161;SDS011;12318;51.262;7.066;2023-05-10T10:25:19;38.75;;;20.70;;
24161;SDS011;12318;51.262;7.066;2023-05-10T10:35:34;29.17;;;17.50;;
24161;SDS011;12318;51.262;7.066;2023-05-10T10:38:00;23.30;;;15.55;;
24161;SDS011;12318;51.262;7.066;2023-05-10T10:40:27;26.52;;;16.08;;
24161;SDS011;12318;51.262;7.066;2023-05-10T10:42:57;28.17;;;15.35;;
24161;SDS011;12318;51.262;7.066;2023-05-10T10:45:43;25.45;;;14.25;;
24161;SDS011;12318;51.262;7.066;2023-05-10T10:48:21;23.52;;;14.85;;
24161;SDS011;12318;51.262;7.066;2023-05-10T10:50:51;26.10;;;15.70;;
24161;SDS011;12318;51.262;7.066;2023-05-10T10:53:21;26.00;;;15.23;;
24161;SDS011;12318;51.262;7.066;2023-05-10T10:55:48;26.73;;;15.40;;
24161;SDS011;12318;51.262;7.066;2023-05-10T10:58:33;22.70;;;14.27;;
24161;SDS011;12318;51.262;7.066;2023-05-10T11:01:21;25.55;;;14.70;;
24161;SDS011;12318;51.262;7.066;2023-05-10T11:06:34;29.25;;;16.80;;
24161;SDS011;12318;51.262;7.066;2023-05-10T11:09:10;30.58;;;16.80;;
24161;SDS011;12318;51.262;7.066;2023-05-10T11:11:48;31.48;;;17.50;;
24161;SDS011;12318;51.262;7.066;2023-05-10T11:14:19;27.02;;;16.90;;
24161;SDS011;12318;51.262;7.066;2023-05-10T11:19:16;26.40;;;16.50;;
24161;SDS011;12318;51.262;7.066;2023-05-10T11:24:20;27.23;;;16.95;;
24161;SDS011;12318;51.262;7.066;2023-05-10T11:26:49;26.25;;;15.35;;
24161;SDS011;12318;51.262;7.066;2023-05-10T11:29:18;26.60;;;14.55;;
24161;SDS011;12318;51.262;7.066;2023-05-10T11:31:50;24.83;;;14.93;;
24161;SDS011;12318;51.262;7.066;2023-05-10T11:34:24;27.48;;;14.82;;
24161;SDS011;12318;51.262;7.066;2023-05-10T11:36:52;31.33;;;14.80;;
24161;SDS011;12318;51.262;7.066;2023-05-10T11:39:20;23.58;;;14.25;;
24161;SDS011;12318;51.262;7.066;2023-05-10T11:41:49;18.80;;;12.73;;
24161;SDS011;12318;51.262;7.066;2023-05-10T11:44:15;18.17;;;13.25;;
24161;SDS011;12318;51.262;7.066;2023-05-10T11:46:41;24.90;;;13.73;;
24161;SDS011;12318;51.262;7.066;2023-05-10T11:49:07;19.73;;;11.93;;
24161;SDS011;12318;51.262;7.066;2023-05-10T11:51:36;18.45;;;13.15;;
24161;SDS011;12318;51.262;7.066;2023-05-10T11:54:06;22.60;;;14.07;;
24161;SDS011;12318;51.262;7.066;2023-05-10T11:56:34;20.85;;;13.88;;
24161;SDS011;12318;51.262;7.066;2023-05-10T11:59:00;31.20;;;14.65;;
24161;SDS011;12318;51.262;7.066;2023-05-10T12:01:27;21.83;;;14.02;;
24161;SDS011;12318;51.262;7.066;2023-05-10T12:03:55;22.73;;;14.70;;
24161;SDS011;12318;51.262;7.066;2023-05-10T12:08:51;25.08;;;15.88;;
24161;SDS011;12318;51.262;7.066;2023-05-10T12:11:18;25.83;;;15.65;;
24161;SDS011;12318;51.262;7.066;2023-05-10T12:13:45;23.73;;;15.55;;
24161;SDS011;12318;51.262;7.066;2023-05-10T12:16:12;24.25;;;15.30;;
24161;SDS011;12318;51.262;7.066;2023-05-10T12:18:40;26.58;;;14.90;;
24161;SDS011;12318;51.262;7.066;2023-05-10T12:21:07;25.77;;;16.02;;
24161;SDS011;12318;51.262;7.066;2023-05-10T12:23:38;26.27;;;15.93;;
24161;SDS011;12318;51.262;7.066;2023-05-10T12:26:04;28.90;;;16.88;;
24161;SDS011;12318;51.262;7.066;2023-05-10T12:28:31;30.05;;;16.92;;
24161;SDS011;12318;51.262;7.066;2023-05-10T12:30:57;24.23;;;16.33;;
24161;SDS011;12318;51.262;7.066;2023-05-10T12:33:42;30.98;;;17.83;;
24161;SDS011;12318;51.262;7.066;2023-05-10T12:36:14;26.58;;;16.73;;
24161;SDS011;12318;51.262;7.066;2023-05-10T12:38:41;30.13;;;18.88;;
24161;SDS011;12318;51.262;7.066;2023-05-10T12:41:09;31.02;;;19.90;;
24161;SDS011;12318;51.262;7.066;2023-05-10T12:43:36;28.35;;;20.40;;
24161;SDS011;12318;51.262;7.066;2023-05-10T12:46:09;27.20;;;17.42;;
24161;SDS011;12318;51.262;7.066;2023-05-10T12:48:36;29.05;;;16.33;;
24161;SDS011;12318;51.262;7.066;2023-05-10T12:51:05;24.27;;;16.17;;
24161;SDS011;12318;51.262;7.066;2023-05-10T12:53:47;25.65;;;15.10;;
24161;SDS011;12318;51.262;7.066;2023-05-10T12:56:13;19.55;;;14.55;;
24161;SDS011;12318;51.262;7.066;2023-05-10T12:58:39;23.90;;;15.00;;
24161;SDS011;12318;51.262;7.066;2023-05-10T13:01:05;22.17;;;14.35;;
24161;SDS011;12318;51.262;7.066;2023-05-10T13:03:37;21.05;;;14.20;;
24161;SDS011;12318;51.262;7.066;2023-05-10T13:06:03;21.30;;;13.38;;
24161;SDS011;12318;51.262;7.066;2023-05-10T13:08:40;19.92;;;13.57;;
24161;SDS011;12318;51.262;7.066;2023-05-10T13:11:05;18.42;;;14.05;;
24161;SDS011;12318;51.262;7.066;2023-05-10T13:13:32;20.98;;;13.68;;
24161;SDS011;12318;51.262;7.066;2023-05-10T13:15:58;20.27;;;13.27;;
24161;SDS011;12318;51.262;7.066;2023-05-10T13:18:24;20.58;;;13.82;;
24161;SDS011;12318;51.262;7.066;2023-05-10T13:20:51;18.73;;;13.50;;
24161;SDS011;12318;51.262;7.066;2023-05-10T13:23:17;21.33;;;13.13;;
24161;SDS011;12318;51.262;7.066;2023-05-10T13:25:43;17.60;;;13.10;;
24161;SDS011;12318;51.262;7.066;2023-05-10T13:28:19;16.67;;;12.23;;
24161;SDS011;12318;51.262;7.066;2023-05-10T13:30:45;16.70;;;12.35;;
24161;SDS011;12318;51.262;7.066;2023-05-10T13:33:11;15.32;;;11.50;;
24161;SDS011;12318;51.262;7.066;2023-05-10T13:35:39;14.77;;;10.85;;
24161;SDS011;12318;51.262;7.066;2023-05-10T13:38:07;16.13;;;11.55;;
24161;SDS011;12318;51.262;7.066;2023-05-10T13:40:38;19.95;;;12.18;;
24161;SDS011;12318;51.262;7.066;2023-05-10T13:43:04;19.23;;;12.75;;
24161;SDS011;12318;51.262;7.066;2023-05-10T13:45:30;19.58;;;11.77;;
24161;SDS011;12318;51.262;7.066;2023-05-10T13:47:56;20.85;;;13.55;;
24161;SDS011;12318;51.262;7.066;2023-05-10T13:50:22;21.70;;;14.55;;
24161;SDS011;12318;51.262;7.066;2023-05-10T13:52:48;21.15;;;14.70;;
24161;SDS011;12318;51.262;7.066;2023-05-10T13:55:13;23.95;;;15.75;;
24161;SDS011;12318;51.262;7.066;2023-05-10T13:57:39;33.00;;;19.88;;
24161;SDS011;12318;51.262;7.066;2023-05-10T14:05:53;34.83;;;23.15;;
24161;SDS011;12318;51.262;7.066;2023-05-10T14:08:19;37.42;;;22.58;;
24161;SDS011;12318;51.262;7.066;2023-05-10T14:10:45;28.88;;;20.13;;
24161;SDS011;12318;51.262;7.066;2023-05-10T14:13:11;27.13;;;19.67;;
24161;SDS011;12318;51.262;7.066;2023-05-10T14:15:37;27.13;;;18.58;;
24161;SDS011;12318;51.262;7.066;2023-05-10T14:18:03;24.65;;;17.13;;
24161;SDS011;12318;51.262;7.066;2023-05-10T14:20:29;22.50;;;16.95;;
24161;SDS011;12318;51.262;7.066;2023-05-10T14:22:54;27.05;;;18.65;;
24161;SDS011;12318;51.262;7.066;2023-05-10T14:25:20;27.77;;;17.98;;
24161;SDS011;12318;51.262;7.066;2023-05-10T14:27:46;26.40;;;18.60;;
24161;SDS011;12318;51.262;7.066;2023-05-10T14:30:12;33.25;;;19.52;;
24161;SDS011;12318;51.262;7.066;2023-05-10T14:32:38;25.52;;;19.65;;
24161;SDS011;12318;51.262;7.066;2023-05-10T14:35:04;29.60;;;20.17;;
24161;SDS011;12318;51.262;7.066;2023-05-10T14:37:31;29.15;;;19.90;;
24161;SDS011;12318;51.262;7.066;2023-05-10T14:39:57;30.88;;;20.48;;
24161;SDS011;12318;51.262;7.066;2023-05-10T14:42:23;29.23;;;19.63;;
24161;SDS011;12318;51.262;7.066;2023-05-10T14:44:49;29.33;;;19.85;;
24161;SDS011;12318;51.262;7.066;2023-05-10T14:47:14;29.27;;;18.65;;
24161;SDS011;12318;51.262;7.066;2023-05-10T14:49:40;27.83;;;18.00;;
24161;SDS011;12318;51.262;7.066;2023-05-10T14:52:06;23.83;;;17.75;;
24161;SDS011;12318;51.262;7.066;2023-05-10T14:54:32;26.77;;;16.77;;
24161;SDS011;12318;51.262;7.066;2023-05-10T14:57:00;26.17;;;16.75;;
24161;SDS011;12318;51.262;7.066;2023-05-10T14:59:26;26.77;;;16.38;;
24161;SDS011;12318;51.262;7.066;2023-05-10T15:01:52;20.52;;;14.52;;
24161;SDS011;12318;51.262;7.066;2023-05-10T15:04:18;20.95;;;16.10;;
24161;SDS011;12318;51.262;7.066;2023-05-10T15:06:43;20.88;;;15.13;;
24161;SDS011;12318;51.262;7.066;2023-05-10T15:09:10;20.67;;;15.50;;
24161;SDS011;12318;51.262;7.066;2023-05-10T15:11:36;22.75;;;15.07;;
24161;SDS011;12318;51.262;7.066;2023-05-10T15:14:01;23.00;;;14.77;;
24161;SDS011;12318;51.262;7.066;2023-05-10T15:16:27;19.88;;;14.77;;
24161;SDS011;12318;51.262;7.066;2023-05-10T15:18:53;22.10;;;14.60;;
24161;SDS011;12318;51.262;7.066;2023-05-10T15:21:18;21.42;;;14.60;;
24161;SDS011;12318;51.262;7.066;2023-05-10T15:23:44;23.13;;;14.98;;
24161;SDS011;12318;51.262;7.066;2023-05-10T15:26:10;22.25;;;15.82;;
24161;SDS011;12318;51.262;7.066;2023-05-10T15:28:35;19.27;;;14.70;;
24161;SDS011;12318;51.262;7.066;2023-05-10T15:31:01;22.58;;;14.82;;
24161;SDS011;12318;51.262;7.066;2023-05-10T15:33:28;22.30;;;15.27;;
24161;SDS011;12318;51.262;7.066;2023-05-10T15:35:53;22.02;;;14.48;;